Time;durP1;ratioP1;P1;durP2;ratioP2;P2;SDS_P1;SDS_P2;PMS_P1;PMS_P2;Temp;Humidity;BMP_temperature;BMP_pressure;BME280_temperature;BME280_humidity;BME280_pressure;Samples;Min_cycle;Max_cycle;Signal;HPM_P1;HPM_P2
2023/08/14 00:02:23;;;;;;;;;6.60;4.00;;;;;17.91;68.85;99906.81;4978154;28;8820;-58
2023/08/14 00:04:51;;;;;;;;;4.00;4.00;;;;;17.90;68.60;99897.88;4962260;28;8916;-56
2023/08/14 00:07:20;;;;;;;;;5.80;4.20;;;;;17.89;68.97;99908.81;4978819;28;8851;-58
2023/08/14 00:09:47;;;;;;;;;3.00;3.00;;;;;17.87;68.63;99906.31;4978318;28;8840;-58
2023/08/14 00:12:15;;;;;;;;;5.80;5.60;;;;;17.85;68.93;99904.78;4977781;28;8847;-58
2023/08/14 00:14:43;;;;;;;;;1.00;1.00;;;;;17.83;68.71;99904.13;4977859;28;9562;-58
2023/08/14 00:17:11;;;;;;;;;5.60;5.60;;;;;17.79;68.86;99898.22;4977469;28;8817;-58
2023/08/14 00:19:39;;;;;;;;;3.00;3.00;;;;;17.77;68.86;99897.53;4977787;28;9478;-58
2023/08/14 00:22:06;;;;;;;;;3.80;3.40;;;;;17.74;69.29;99900.56;4977676;28;8824;-58
2023/08/14 00:24:34;;;;;;;;;3.40;3.20;;;;;17.71;69.35;99900.06;4978210;28;8867;-58
2023/08/14 00:27:02;;;;;;;;;4.40;4.00;;;;;17.68;69.45;99901.22;4976476;28;8855;-58
2023/08/14 00:29:29;;;;;;;;;3.00;3.00;;;;;17.65;69.66;99908.81;4977333;28;8848;-58
2023/08/14 00:31:57;;;;;;;;;4.00;4.00;;;;;17.58;69.28;99907.78;4977835;28;8819;-57
2023/08/14 00:34:24;;;;;;;;;4.00;4.00;;;;;17.50;69.43;99907.78;4974270;28;8840;-58
2023/08/14 00:36:52;;;;;;;;;3.00;3.00;;;;;17.44;69.35;99908.44;4977645;28;8861;-58
2023/08/14 00:39:20;;;;;;;;;2.60;1.40;;;;;17.40;69.74;99904.41;4978484;28;8841;-58
2023/08/14 00:41:47;;;;;;;;;4.00;4.00;;;;;17.35;69.80;99896.81;4977331;28;8824;-58
2023/08/14 00:44:15;;;;;;;;;3.80;3.80;;;;;17.31;70.15;99892.75;4978028;28;8809;-58
2023/08/14 00:46:43;;;;;;;;;3.20;3.20;;;;;17.27;70.17;99895.94;4978550;28;8850;-61
2023/08/14 00:49:11;;;;;;;;;5.20;4.00;;;;;17.23;70.59;99894.59;4978329;28;8955;-58
2023/08/14 00:51:38;;;;;;;;;7.00;6.00;;;;;17.19;70.32;99894.09;4978557;28;8835;-60
2023/08/14 00:54:06;;;;;;;;;4.00;4.00;;;;;17.15;70.29;99887.34;4978173;28;8825;-58
2023/08/14 00:56:34;;;;;;;;;2.20;2.20;;;;;17.13;70.83;99886.66;4958352;28;8966;-57
2023/08/14 00:59:03;;;;;;;;;3.80;3.80;;;;;17.10;70.49;99884.28;4958369;28;8841;-58
2023/08/14 01:01:31;;;;;;;;;6.20;6.20;;;;;17.07;70.85;99892.69;4958513;28;8853;-58
2023/08/14 01:03:59;;;;;;;;;4.00;4.00;;;;;17.03;70.65;99898.56;4958554;28;8838;-59
2023/08/14 01:06:27;;;;;;;;;0.60;0.60;;;;;16.99;70.30;99895.38;4958632;28;8865;-60
2023/08/14 01:08:54;;;;;;;;;4.00;4.00;;;;;16.96;70.74;99893.03;4958887;28;9524;-60
2023/08/14 01:11:22;;;;;;;;;4.00;4.00;;;;;16.95;70.82;99896.69;4958298;28;8925;-60
2023/08/14 01:13:49;;;;;;;;;4.00;4.00;;;;;16.99;70.95;99894.53;4972476;28;8839;-60
2023/08/14 01:16:17;;;;;;;;;3.80;3.00;;;;;17.01;70.98;99895.22;4977729;28;8832;-60
2023/08/14 01:18:45;;;;;;;;;3.80;3.40;;;;;16.99;70.41;99884.59;4977403;28;8809;-60
2023/08/14 01:21:13;;;;;;;;;3.60;3.60;;;;;16.95;70.95;99880.53;4977333;28;8843;-60
2023/08/14 01:23:40;;;;;;;;;6.00;6.00;;;;;16.92;70.90;99890.78;4977415;28;8816;-60
2023/08/14 01:26:08;;;;;;;;;3.80;3.80;;;;;16.87;70.73;99885.91;4977731;28;8849;-61
2023/08/14 01:28:36;;;;;;;;;6.00;6.00;;;;;16.84;71.00;99883.56;4975855;28;8812;-57
2023/08/14 01:31:04;;;;;;;;;3.60;3.60;;;;;16.80;70.78;99895.63;4975847;28;8848;-59
2023/08/14 01:33:31;;;;;;;;;5.60;5.60;;;;;16.76;70.99;99886.22;4976292;28;8821;-59
2023/08/14 01:35:59;;;;;;;;;6.00;4.40;;;;;16.75;70.94;99889.91;4976154;28;8907;-60
2023/08/14 01:38:27;;;;;;;;;6.60;6.20;;;;;16.72;71.42;99892.91;4976719;28;8836;-60
2023/08/14 01:40:54;;;;;;;;;3.80;3.60;;;;;16.69;71.55;99884.31;4976695;28;8828;-60
2023/08/14 01:43:22;;;;;;;;;7.00;6.00;;;;;16.68;71.62;99888.03;4975906;28;8896;-60
2023/08/14 01:45:49;;;;;;;;;4.40;4.40;;;;;16.65;71.26;99894.56;4977604;28;8820;-59
2023/08/14 01:48:17;;;;;;;;;3.40;3.40;;;;;16.64;71.48;99887.50;4977238;28;8837;-59
2023/08/14 01:50:45;;;;;;;;;6.00;4.80;;;;;16.61;71.24;99877.09;4977145;28;8840;-58
2023/08/14 01:53:13;;;;;;;;;5.20;4.20;;;;;16.59;71.54;99884.47;4957725;28;8822;-60
2023/08/14 01:55:41;;;;;;;;;6.20;4.00;;;;;16.56;71.27;99874.03;4957728;28;8833;-58
2023/08/14 01:58:09;;;;;;;;;6.20;6.20;;;;;16.55;71.82;99869.66;4957186;28;8834;-58
2023/08/14 02:00:37;;;;;;;;;3.80;3.60;;;;;16.52;71.68;99874.50;4956307;28;8845;-60
2023/08/14 02:03:05;;;;;;;;;4.00;4.00;;;;;16.49;71.23;99870.28;4957159;28;8841;-59
2023/08/14 02:05:32;;;;;;;;;4.40;4.00;;;;;16.47;71.56;99864.25;4956034;28;8841;-60
2023/08/14 02:08:00;;;;;;;;;5.20;5.20;;;;;16.43;71.53;99853.97;4957087;28;8857;-61
2023/08/14 02:10:28;;;;;;;;;4.80;4.00;;;;;16.39;71.93;99855.28;4956496;29;8850;-59
2023/08/14 02:12:55;;;;;;;;;6.00;6.00;;;;;16.35;72.17;99854.72;4956564;29;8884;-59
2023/08/14 02:15:23;;;;;;;;;6.00;5.20;;;;;16.31;71.93;99856.06;4956440;28;8837;-60
2023/08/14 02:17:51;;;;;;;;;4.00;3.80;;;;;16.29;71.82;99858.09;4956326;29;8924;-59
2023/08/14 02:20:19;;;;;;;;;5.60;4.00;;;;;16.26;72.22;99839.56;4957261;29;8920;-60
2023/08/14 02:22:47;;;;;;;;;3.80;3.80;;;;;16.23;71.97;99847.97;4959376;28;8837;-60
2023/08/14 02:25:15;;;;;;;;;3.00;3.00;;;;;16.23;72.25;99841.75;4961731;28;8860;-60
2023/08/14 02:27:42;;;;;;;;;2.20;1.40;;;;;16.23;72.05;99840.91;4960681;28;8873;-59
2023/08/14 02:30:10;;;;;;;;;4.00;4.00;;;;;16.22;72.79;99839.22;4960947;28;8856;-59
2023/08/14 02:32:38;;;;;;;;;7.00;6.20;;;;;16.19;72.05;99832.34;4960291;28;8887;-60
2023/08/14 02:35:07;;;;;;;;;3.20;3.20;;;;;16.16;72.51;99831.81;4960240;28;8841;-58
2023/08/14 02:37:34;;;;;;;;;1.00;1.00;;;;;16.15;72.25;99827.44;4960376;28;8881;-58
2023/08/14 02:40:02;;;;;;;;;3.00;3.00;;;;;16.11;72.22;99828.75;4960316;28;8848;-60
2023/08/14 02:42:30;;;;;;;;;4.80;4.00;;;;;16.06;72.64;99826.53;4952056;29;8838;-59
2023/08/14 02:44:58;;;;;;;;;6.00;6.00;;;;;16.02;72.78;99829.72;4940658;29;8856;-60
2023/08/14 02:47:26;;;;;;;;;4.80;4.80;;;;;15.99;72.61;99824.66;4940847;29;8851;-58
2023/08/14 02:49:53;;;;;;;;;6.80;6.00;;;;;15.94;72.51;99816.22;4940360;29;8926;-59
2023/08/14 02:52:21;;;;;;;;;5.60;5.60;;;;;15.92;73.02;99815.56;4953568;28;8838;-60
2023/08/14 02:54:49;;;;;;;;;6.40;5.60;;;;;15.89;73.22;99824.78;4969216;28;9594;-59
2023/08/14 02:57:17;;;;;;;;;6.00;6.00;;;;;15.86;73.21;99825.06;4979947;28;8830;-59
2023/08/14 02:59:44;;;;;;;;;6.00;4.40;;;;;15.84;72.64;99818.19;4980447;28;8829;-59
2023/08/14 03:02:12;;;;;;;;;5.60;4.00;;;;;15.80;73.18;99814.13;4980426;28;8835;-57
2023/08/14 03:04:39;;;;;;;;;5.60;4.00;;;;;15.77;73.28;99809.09;4980251;28;8837;-58
2023/08/14 03:07:07;;;;;;;;;3.00;1.40;;;;;15.74;73.28;99804.00;4980181;28;8851;-60
2023/08/14 03:09:35;;;;;;;;;4.00;4.00;;;;;15.73;73.26;99802.31;4980273;28;8864;-58
2023/08/14 03:12:03;;;;;;;;;6.20;5.20;;;;;15.70;73.42;99813.41;4980100;28;8835;-58
2023/08/14 03:14:30;;;;;;;;;6.00;6.00;;;;;15.68;73.39;99799.25;4980229;28;8821;-59
2023/08/14 03:16:58;;;;;;;;;7.60;7.60;;;;;15.67;73.06;99808.31;4980050;28;8835;-59
2023/08/14 03:19:26;;;;;;;;;4.40;4.00;;;;;15.66;72.97;99822.75;4979823;28;8863;-60
2023/08/14 03:21:54;;;;;;;;;3.20;3.20;;;;;15.65;73.07;99823.75;4979921;28;8849;-60
2023/08/14 03:24:22;;;;;;;;;4.80;4.80;;;;;15.61;73.31;99817.84;4979895;28;8834;-60
2023/08/14 03:26:50;;;;;;;;;4.00;4.00;;;;;15.58;73.64;99828.91;4980171;28;8847;-58
2023/08/14 03:29:17;;;;;;;;;9.40;8.20;;;;;15.58;73.50;99830.75;4979408;28;8812;-60
2023/08/14 03:31:45;;;;;;;;;4.50;3.75;;;;;15.56;73.71;99827.38;4979608;28;8829;-58
2023/08/14 03:34:12;;;;;;;;;4.00;4.00;;;;;15.53;73.11;99828.53;4978574;28;8820;-59
2023/08/14 03:36:40;;;;;;;;;6.00;5.50;;;;;15.51;72.72;99827.00;4978885;28;8812;-58
2023/08/14 03:39:08;;;;;;;;;8.50;6.25;;;;;15.49;73.75;99827.16;4979240;28;8854;-58
2023/08/14 03:41:35;;;;;;;;;3.60;3.60;;;;;15.46;73.67;99832.00;4979264;28;8817;-60
2023/08/14 03:44:03;;;;;;;;;3.75;3.50;;;;;15.43;73.71;99837.66;4979380;28;8863;-57
2023/08/14 03:46:31;;;;;;;;;4.00;4.00;;;;;15.38;73.93;99832.78;4979681;28;8848;-60
2023/08/14 03:48:58;;;;;;;;;4.00;4.00;;;;;15.34;73.90;99828.72;4979330;28;8840;-59
2023/08/14 03:51:26;;;;;;;;;1.00;0.00;;;;;15.30;73.60;99826.44;4977661;28;8817;-57
2023/08/14 03:53:53;;;;;;;;;4.00;3.25;;;;;15.26;73.64;99820.53;4979401;28;8859;-60
2023/08/14 03:56:21;;;;;;;;;3.75;3.50;;;;;15.24;73.80;99811.00;4978468;28;8843;-60
2023/08/14 03:58:49;;;;;;;;;3.00;3.00;;;;;15.22;73.37;99812.97;4977306;28;8824;-58
2023/08/14 04:01:17;;;;;;;;;3.00;3.00;;;;;15.20;74.17;99821.19;4977902;28;8824;-59
2023/08/14 04:03:44;;;;;;;;;6.75;5.50;;;;;15.21;74.15;99816.66;4977057;28;8824;-60
2023/08/14 04:06:12;;;;;;;;;6.00;5.50;;;;;15.21;74.01;99814.81;4977105;28;9075;-59
2023/08/14 04:08:39;;;;;;;;;4.50;4.50;;;;;15.20;73.54;99807.78;4977136;28;8860;-59
2023/08/14 04:11:07;;;;;;;;;3.25;2.00;;;;;15.21;73.81;99803.22;4976858;28;8836;-59
2023/08/14 04:13:36;;;;;;;;;3.50;3.25;;;;;15.20;73.43;99810.47;4976866;28;8852;-59
2023/08/14 04:16:03;;;;;;;;;3.00;3.00;;;;;15.18;74.00;99819.66;4976926;28;8837;-57
2023/08/14 04:18:31;;;;;;;;;3.00;3.00;;;;;15.16;74.17;99813.59;4976376;28;8902;-58
2023/08/14 04:20:59;;;;;;;;;6.50;5.00;;;;;15.15;74.26;99815.44;4977542;28;8959;-57
2023/08/14 04:23:28;;;;;;;;;3.00;3.00;;;;;15.15;73.60;99814.56;4977337;28;9483;-57
2023/08/14 04:25:57;;;;;;;;;3.25;3.25;;;;;15.14;74.34;99815.56;4977132;28;8851;-57
2023/08/14 04:28:25;;;;;;;;;6.00;5.00;;;;;15.14;73.88;99815.56;4977208;28;8870;-60
2023/08/14 04:30:53;;;;;;;;;4.00;4.00;;;;;15.13;73.91;99816.56;4976862;28;8813;-60
2023/08/14 04:33:20;;;;;;;;;6.25;4.00;;;;;15.11;74.12;99813.22;4977502;28;8840;-58
2023/08/14 04:35:48;;;;;;;;;6.00;5.00;;;;;15.11;74.05;99808.69;4978590;28;8832;-59
2023/08/14 04:38:16;;;;;;;;;4.00;4.00;;;;;15.13;74.10;99806.72;4978236;28;8861;-58
2023/08/14 04:40:44;;;;;;;;;5.50;4.00;;;;;15.14;74.05;99815.56;4977226;28;8836;-58
2023/08/14 04:43:12;;;;;;;;;4.00;4.00;;;;;15.14;73.54;99812.91;4976224;28;8829;-58
2023/08/14 04:45:39;;;;;;;;;3.75;3.75;;;;;15.16;73.99;99813.59;4975920;28;8858;-58
2023/08/14 04:48:07;;;;;;;;;4.75;4.25;;;;;15.17;73.38;99800.03;4977318;28;9511;-58
2023/08/14 04:50:35;;;;;;;;;6.00;4.00;;;;;15.20;73.98;99793.50;4977394;28;8927;-59
2023/08/14 04:53:03;;;;;;;;;3.50;3.50;;;;;15.24;73.79;99786.84;4977856;28;8828;-57
2023/08/14 04:55:33;;;;;;;;;8.25;6.50;;;;;15.32;73.59;99790.44;4977491;28;8832;-60
2023/08/14 04:58:00;;;;;;;;;6.25;6.00;;;;;15.42;73.26;99795.72;4977090;28;8809;-60
2023/08/14 05:00:28;;;;;;;;;6.00;6.00;;;;;15.46;73.17;99794.44;4976354;28;8875;-57
2023/08/14 05:02:56;;;;;;;;;4.00;4.00;;;;;15.49;72.97;99799.47;4976402;28;8891;-60
2023/08/14 05:05:24;;;;;;;;;4.00;4.00;;;;;15.50;73.10;99801.16;4976257;28;8843;-57
2023/08/14 05:07:52;;;;;;;;;3.20;3.00;;;;;15.49;73.17;99794.94;4976584;28;9764;-59
2023/08/14 05:10:19;;;;;;;;;4.00;4.00;;;;;15.55;73.22;99804.22;4975903;28;8974;-58
2023/08/14 05:12:47;;;;;;;;;3.75;3.00;;;;;15.61;72.77;99801.75;4975962;28;8832;-59
2023/08/14 05:15:15;;;;;;;;;0.80;0.80;;;;;15.68;73.11;99815.38;4975377;28;8816;-60
2023/08/14 05:17:42;;;;;;;;;4.80;4.80;;;;;15.75;72.69;99819.13;4974299;28;8828;-58
2023/08/14 05:20:10;;;;;;;;;3.60;3.60;;;;;15.86;72.37;99808.13;4975170;28;9614;-60
2023/08/14 05:22:38;;;;;;;;;4.40;4.40;;;;;15.99;71.55;99804.00;4973097;28;8852;-60
2023/08/14 05:25:06;;;;;;;;;4.00;4.00;;;;;16.13;71.46;99805.25;4975454;28;8855;-59
2023/08/14 05:27:38;;;;;;;;;4.00;4.00;;;;;16.25;71.28;99813.72;4975131;28;8974;-59
2023/08/14 05:30:06;;;;;;;;;7.00;6.40;;;;;16.36;71.18;99813.44;4975070;28;8920;-58
2023/08/14 05:32:34;;;;;;;;;6.00;6.00;;;;;16.44;70.78;99808.13;4974933;28;8832;-60
2023/08/14 05:35:01;;;;;;;;;7.00;6.40;;;;;16.54;71.22;99806.13;4974699;28;8911;-60
2023/08/14 05:37:29;;;;;;;;;6.80;4.00;;;;;16.69;70.06;99804.50;4974217;28;8825;-58
2023/08/14 05:39:57;;;;;;;;;6.20;6.20;;;;;16.85;70.55;99801.84;4974304;28;8883;-58
2023/08/14 05:42:25;;;;;;;;;3.40;3.40;;;;;17.00;69.87;99808.25;4973426;28;9286;-59
2023/08/14 05:44:52;;;;;;;;;10.00;9.20;;;;;17.12;69.88;99804.25;4972339;28;8861;-60
2023/08/14 05:47:20;;;;;;;;;7.00;6.00;;;;;17.26;69.27;99805.44;4971302;28;9246;-58
2023/08/14 05:49:48;;;;;;;;;9.40;6.40;;;;;17.34;69.39;99800.91;4971583;28;9550;-60
2023/08/14 05:52:16;;;;;;;;;6.60;6.60;;;;;17.45;69.91;99803.28;4971447;28;8971;-60
2023/08/14 05:54:44;;;;;;;;;10.60;8.60;;;;;17.56;68.94;99800.25;4971390;28;8922;-58
2023/08/14 05:57:11;;;;;;;;;6.40;6.40;;;;;17.65;69.13;99796.53;4971054;28;8955;-59
2023/08/14 05:59:39;;;;;;;;;5.60;5.60;;;;;17.74;68.47;99790.13;4972895;28;8841;-57
2023/08/14 06:02:07;;;;;;;;;7.00;6.20;;;;;17.82;68.62;99790.09;4973573;28;8882;-60
2023/08/14 06:04:36;;;;;;;;;6.40;4.80;;;;;17.90;68.84;99789.25;4973024;28;8864;-58
2023/08/14 06:07:04;;;;;;;;;6.40;4.40;;;;;17.98;68.77;99792.75;4973269;28;9156;-60
2023/08/14 06:09:32;;;;;;;;;7.40;6.40;;;;;18.07;68.85;99793.59;4973683;28;8852;-59
2023/08/14 06:11:59;;;;;;;;;5.80;5.60;;;;;18.17;68.23;99803.16;4974016;28;8902;-60
2023/08/14 06:14:27;;;;;;;;;9.00;7.20;;;;;18.32;68.18;99808.69;4973642;28;8994;-58
2023/08/14 06:16:55;;;;;;;;;6.60;6.00;;;;;18.45;67.89;99806.28;4974455;28;8840;-59
2023/08/14 06:19:22;;;;;;;;;6.80;6.80;;;;;18.60;67.42;99799.13;4974033;28;9598;-58
2023/08/14 06:21:50;;;;;;;;;3.20;3.00;;;;;18.75;67.52;99802.75;4973447;28;8854;-58
2023/08/14 06:24:18;;;;;;;;;4.80;4.00;;;;;18.87;67.31;99796.78;4973820;28;8848;-58
2023/08/14 06:26:45;;;;;;;;;3.00;2.60;;;;;19.02;67.19;99792.28;4973906;28;8820;-58
2023/08/14 06:29:13;;;;;;;;;6.00;4.00;;;;;19.13;67.05;99789.16;4973348;28;8871;-58
2023/08/14 06:31:41;;;;;;;;;7.00;6.80;;;;;19.23;66.40;99784.41;4973187;28;8844;-58
2023/08/14 06:34:09;;;;;;;;;5.60;4.00;;;;;19.29;67.03;99783.69;4973623;28;8855;-61
2023/08/14 06:36:38;;;;;;;;;6.20;6.20;;;;;19.32;66.76;99772.53;4974536;28;8858;-58
2023/08/14 06:39:05;;;;;;;;;8.20;7.00;;;;;19.34;66.60;99772.34;4974850;28;8953;-58
2023/08/14 06:41:33;;;;;;;;;5.60;5.20;;;;;19.40;66.91;99774.28;4973962;28;8856;-59
2023/08/14 06:44:01;;;;;;;;;5.00;5.00;;;;;19.48;66.72;99772.38;4974296;28;8858;-58
2023/08/14 06:46:29;;;;;;;;;7.00;6.20;;;;;19.56;66.74;99775.00;4975212;28;8833;-60
2023/08/14 06:48:57;;;;;;;;;1.20;1.00;;;;;19.66;66.08;99772.03;4975065;28;8832;-59
2023/08/14 06:51:27;;;;;;;;;4.20;4.20;;;;;19.79;65.78;99772.25;4974169;28;8854;-58
2023/08/14 06:53:55;;;;;;;;;3.40;3.40;;;;;19.89;65.82;99781.75;4974711;28;9138;-60
2023/08/14 06:56:23;;;;;;;;;6.60;6.60;;;;;20.01;66.15;99791.09;4974611;28;9541;-58
2023/08/14 06:58:51;;;;;;;;;5.40;5.40;;;;;20.07;65.74;99794.94;4974483;28;8829;-60
2023/08/14 07:01:18;;;;;;;;;5.20;4.60;;;;;20.12;65.36;99806.06;4974609;28;8833;-59
2023/08/14 07:03:46;;;;;;;;;6.60;5.00;;;;;20.16;65.46;99802.78;4975051;28;8832;-59
2023/08/14 07:06:14;;;;;;;;;5.40;5.00;;;;;20.26;65.62;99791.69;4975145;28;9570;-58
2023/08/14 07:08:42;;;;;;;;;6.20;5.80;;;;;20.35;64.92;99799.53;4975570;28;8872;-58
2023/08/14 07:11:10;;;;;;;;;5.00;4.00;;;;;20.45;64.85;99783.84;4978021;28;8855;-59
2023/08/14 07:13:38;;;;;;;;;7.20;5.80;;;;;20.58;64.61;99783.16;4976869;28;8864;-59
2023/08/14 07:16:06;;;;;;;;;5.00;5.00;;;;;20.73;64.50;99765.03;4976778;28;8934;-58
2023/08/14 07:18:35;;;;;;;;;8.00;7.00;;;;;20.94;64.24;99753.22;4975819;28;8820;-58
2023/08/14 07:21:03;;;;;;;;;5.00;5.00;;;;;21.17;63.48;99753.03;4975272;28;8840;-59
2023/08/14 07:23:31;;;;;;;;;4.60;4.60;;;;;21.39;63.07;99754.69;4976394;28;8902;-59
2023/08/14 07:25:59;;;;;;;;;3.20;2.00;;;;;21.64;62.95;99761.38;4976565;28;8852;-59
2023/08/14 07:28:27;;;;;;;;;6.60;4.80;;;;;21.87;62.42;99756.56;4976720;28;8844;-59
2023/08/14 07:30:55;;;;;;;;;7.00;5.40;;;;;22.08;62.06;99770.88;4977802;28;8855;-59
2023/08/14 07:33:23;;;;;;;;;6.40;5.00;;;;;22.26;61.68;99775.81;4977807;28;8848;-59
2023/08/14 07:35:50;;;;;;;;;4.60;4.00;;;;;22.42;61.45;99772.78;4977921;28;8832;-59
2023/08/14 07:38:18;;;;;;;;;3.60;3.20;;;;;22.54;61.82;99772.00;4977457;28;8848;-60
2023/08/14 07:40:46;;;;;;;;;3.60;3.20;;;;;22.66;61.12;99774.97;4977305;28;8836;-59
2023/08/14 07:43:14;;;;;;;;;5.60;5.60;;;;;22.78;61.04;99771.47;4977409;28;8832;-59
2023/08/14 07:45:43;;;;;;;;;5.00;4.60;;;;;22.86;60.69;99773.16;4976361;28;8833;-58
2023/08/14 07:48:11;;;;;;;;;4.00;4.00;;;;;22.89;61.52;99765.44;4977009;28;8898;-60
2023/08/14 07:50:39;;;;;;;;;4.00;4.00;;;;;22.94;60.86;99756.69;4976973;28;8845;-59
2023/08/14 07:53:07;;;;;;;;;4.20;3.20;;;;;22.98;60.86;99758.78;4977093;28;8816;-58
2023/08/14 07:55:34;;;;;;;;;5.00;4.40;;;;;23.02;61.57;99751.06;4976170;28;9543;-59
2023/08/14 07:58:02;;;;;;;;;3.20;3.20;;;;;23.06;61.21;99753.16;4976513;28;8837;-59
2023/08/14 08:00:31;;;;;;;;;2.00;1.80;;;;;23.15;61.37;99759.28;4975590;28;8848;-59
2023/08/14 08:02:59;;;;;;;;;2.80;2.40;;;;;23.25;61.33;99756.97;4975604;28;9554;-59
2023/08/14 08:05:26;;;;;;;;;4.40;4.40;;;;;23.33;60.84;99756.78;4975420;28;9523;-59
2023/08/14 08:07:54;;;;;;;;;3.60;3.60;;;;;23.40;60.88;99765.78;4974630;28;8876;-59
2023/08/14 08:10:22;;;;;;;;;2.00;2.00;;;;;23.44;60.65;99764.31;4974959;28;8844;-59
2023/08/14 08:12:50;;;;;;;;;1.60;1.60;;;;;23.51;60.42;99779.59;4975102;28;8837;-59
2023/08/14 08:15:18;;;;;;;;;3.60;3.60;;;;;23.57;60.14;99776.03;4974660;28;8856;-59
2023/08/14 08:17:46;;;;;;;;;2.00;2.00;;;;;23.67;60.60;99765.56;4974948;28;8840;-59
2023/08/14 08:20:14;;;;;;;;;3.00;3.00;;;;;23.74;60.07;99757.41;4975556;28;8844;-59
2023/08/14 08:22:41;;;;;;;;;3.40;3.40;;;;;23.82;60.25;99755.31;4975752;28;8836;-59
2023/08/14 08:25:10;;;;;;;;;1.00;0.20;;;;;23.89;59.89;99755.34;4975880;28;8840;-58
2023/08/14 08:27:38;;;;;;;;;4.00;3.20;;;;;23.96;60.18;99756.19;4974287;28;8930;-59
2023/08/14 08:30:05;;;;;;;;;5.00;5.00;;;;;23.99;59.84;99758.47;4974989;28;9384;-59
2023/08/14 08:32:33;;;;;;;;;3.00;3.00;;;;;23.99;60.11;99758.47;4974536;28;9520;-59
2023/08/14 08:35:01;;;;;;;;;3.00;3.00;;;;;23.97;60.50;99755.13;4975621;28;8958;-59
2023/08/14 08:37:29;;;;;;;;;1.40;1.40;;;;;23.95;60.49;99759.91;4974578;28;8887;-59
2023/08/14 08:39:56;;;;;;;;;5.00;3.20;;;;;23.95;60.40;99757.19;4973793;28;8849;-59
2023/08/14 08:42:24;;;;;;;;;3.20;2.00;;;;;23.98;60.34;99764.94;4973989;28;8828;-59
2023/08/14 08:44:52;;;;;;;;;5.00;3.80;;;;;23.97;60.38;99757.84;4974149;28;8828;-59
2023/08/14 08:47:20;;;;;;;;;2.60;2.60;;;;;24.02;60.35;99774.34;4974049;28;8844;-58
2023/08/14 08:49:48;;;;;;;;;2.80;2.00;;;;;24.11;60.13;99762.22;4973737;28;8898;-59
2023/08/14 08:52:16;;;;;;;;;2.60;2.60;;;;;24.22;59.63;99761.53;4973987;28;9534;-59
2023/08/14 08:54:44;;;;;;;;;2.40;2.00;;;;;24.33;59.72;99756.28;4974261;28;8845;-59
2023/08/14 08:57:12;;;;;;;;;2.80;2.80;;;;;24.43;59.08;99756.66;4974877;28;8918;-59
2023/08/14 08:59:40;;;;;;;;;3.60;3.20;;;;;24.49;59.28;99744.09;4975454;28;8852;-59
2023/08/14 09:02:07;;;;;;;;;3.40;3.40;;;;;24.56;59.26;99745.75;4975325;28;8844;-59
2023/08/14 09:04:35;;;;;;;;;2.00;2.00;;;;;24.63;58.92;99730.22;4976872;28;8820;-59
2023/08/14 09:07:04;;;;;;;;;6.00;5.00;;;;;24.73;59.17;99735.19;4976060;28;8842;-59
2023/08/14 09:09:31;;;;;;;;;2.00;2.00;;;;;24.80;59.00;99738.72;4976007;28;8987;-59
2023/08/14 09:11:59;;;;;;;;;4.20;4.20;;;;;24.86;58.93;99732.41;4975488;28;8987;-59
2023/08/14 09:14:27;;;;;;;;;5.00;5.00;;;;;25.00;58.56;99744.88;4975536;28;8982;-59
2023/08/14 09:16:55;;;;;;;;;3.00;2.60;;;;;25.26;57.89;99747.47;4974356;28;8946;-59
2023/08/14 09:19:23;;;;;;;;;4.20;3.40;;;;;25.52;57.29;99739.06;4974576;28;8833;-59
2023/08/14 09:21:51;;;;;;;;;5.00;5.00;;;;;25.71;56.71;99742.47;4975254;28;8840;-59
2023/08/14 09:24:19;;;;;;;;;5.40;5.00;;;;;25.89;56.97;99750.72;4975513;28;8995;-59
2023/08/14 09:26:46;;;;;;;;;3.80;3.80;;;;;26.01;56.56;99742.63;4975836;28;8939;-59
2023/08/14 09:29:14;;;;;;;;;3.00;2.60;;;;;26.11;56.16;99749.25;4975320;28;8910;-58
2023/08/14 09:31:47;;;;;;;;;4.20;3.80;;;;;26.20;56.44;99761.53;4974693;28;8990;-60
2023/08/14 09:34:15;;;;;;;;;3.80;3.80;;;;;26.15;56.96;99755.94;4975440;28;8879;-59
2023/08/14 09:36:43;;;;;;;;;6.20;5.80;;;;;26.12;56.26;99761.00;4974157;28;9056;-59
2023/08/14 09:39:11;;;;;;;;;3.40;3.40;;;;;26.16;56.29;99760.34;4975164;28;8857;-59
2023/08/14 09:41:39;;;;;;;;;4.40;4.00;;;;;26.23;56.21;99757.50;4975257;28;9535;-59
2023/08/14 09:44:07;;;;;;;;;5.40;5.40;;;;;26.33;56.13;99745.00;4974827;28;8856;-59
2023/08/14 09:46:35;;;;;;;;;2.60;2.00;;;;;26.55;56.07;99745.44;4974620;28;8836;-59
2023/08/14 09:49:03;;;;;;;;;2.80;2.80;;;;;26.99;54.63;99734.94;4974808;28;9215;-60
2023/08/14 09:51:31;;;;;;;;;3.00;3.00;;;;;27.55;53.75;99743.53;4974986;28;8863;-59
2023/08/14 09:53:59;;;;;;;;;3.00;3.00;;;;;28.04;53.15;99743.13;4974869;28;8860;-61
2023/08/14 09:56:27;;;;;;;;;2.80;2.80;;;;;28.35;52.50;99740.03;4974848;28;8928;-61
2023/08/14 09:58:55;;;;;;;;;1.40;1.40;;;;;28.87;51.79;99732.59;4974810;28;8887;-61
2023/08/14 10:01:23;;;;;;;;;4.40;4.40;;;;;29.32;50.96;99723.34;4974429;28;8927;-61
2023/08/14 10:03:51;;;;;;;;;3.60;3.60;;;;;29.66;50.75;99719.53;4973874;28;8857;-59
2023/08/14 10:06:19;;;;;;;;;3.00;3.00;;;;;29.99;49.99;99725.00;4974054;28;9633;-60
2023/08/14 10:08:47;;;;;;;;;2.80;2.80;;;;;30.47;49.22;99711.41;4973804;28;8848;-60
2023/08/14 10:11:15;;;;;;;;;4.40;4.40;;;;;30.89;48.77;99713.31;4973407;28;8852;-60
2023/08/14 10:13:46;;;;;;;;;4.00;3.00;;;;;31.23;48.07;99713.97;4973471;28;8828;-59
2023/08/14 10:16:15;;;;;;;;;4.00;4.00;;;;;31.51;47.82;99706.28;4973960;28;8883;-60
2023/08/14 10:18:43;;;;;;;;;3.60;3.60;;;;;31.78;47.37;99701.53;4972521;28;8837;-59
2023/08/14 10:21:10;;;;;;;;;3.00;3.00;;;;;31.95;47.74;99701.38;4973540;28;8840;-61
2023/08/14 10:23:38;;;;;;;;;2.00;2.00;;;;;32.22;47.13;99699.34;4974170;28;8848;-60
2023/08/14 10:26:06;;;;;;;;;3.00;3.00;;;;;32.42;47.04;99691.19;4974283;28;8847;-60
2023/08/14 10:28:34;;;;;;;;;2.00;2.00;;;;;32.57;46.99;99702.28;4973818;28;8958;-59
2023/08/14 10:31:02;;;;;;;;;3.00;3.00;;;;;32.95;45.77;99697.19;4973224;28;8863;-60
2023/08/14 10:33:30;;;;;;;;;4.40;4.40;;;;;33.26;45.86;99698.94;4973452;28;8955;-60
2023/08/14 10:35:58;;;;;;;;;3.00;3.00;;;;;33.56;44.96;99698.09;4973919;28;9205;-60
2023/08/14 10:38:26;;;;;;;;;3.00;2.40;;;;;33.90;44.92;99696.47;4973036;28;8978;-59
2023/08/14 10:40:54;;;;;;;;;2.60;2.00;;;;;34.26;44.60;99684.19;4974049;28;8839;-59
2023/08/14 10:43:26;;;;;;;;;3.00;3.00;;;;;34.50;43.61;99688.00;4973766;28;9511;-60
2023/08/14 10:45:54;;;;;;;;;3.00;3.00;;;;;34.43;44.28;99681.94;4977680;28;8875;-60
2023/08/14 10:48:22;;;;;;;;;4.00;4.00;;;;;34.16;44.33;99685.06;4978002;28;8855;-60
2023/08/14 10:50:50;;;;;;;;;3.00;3.00;;;;;33.88;45.01;99693.97;4977466;28;8943;-60
2023/08/14 10:53:18;;;;;;;;;4.00;4.00;;;;;33.16;45.88;99689.78;4976633;28;9255;-61
2023/08/14 10:55:46;;;;;;;;;4.00;3.00;;;;;32.72;47.09;99691.28;4976190;28;8844;-60
2023/08/14 10:58:14;;;;;;;;;1.00;1.00;;;;;32.80;46.43;99693.56;4975319;28;8845;-59
2023/08/14 11:00:43;;;;;;;;;2.80;2.80;;;;;32.67;46.33;99702.31;4975199;28;8828;-59
2023/08/14 11:03:11;;;;;;;;;4.60;4.00;;;;;32.57;47.04;99705.03;4976096;28;8871;-59
2023/08/14 11:05:39;;;;;;;;;1.80;1.80;;;;;32.28;46.85;99701.03;4975499;28;8854;-60
2023/08/14 11:08:07;;;;;;;;;3.20;2.60;;;;;31.78;48.19;99706.22;4975390;28;8864;-60
2023/08/14 11:10:35;;;;;;;;;3.20;3.00;;;;;31.20;49.18;99709.81;4975080;28;8857;-59
2023/08/14 11:13:03;;;;;;;;;3.00;3.00;;;;;30.63;50.16;99710.53;4975100;28;8912;-59
2023/08/14 11:15:31;;;;;;;;;2.80;2.80;;;;;30.81;49.90;99699.22;4973695;28;8872;-59
2023/08/14 11:17:59;;;;;;;;;2.20;2.20;;;;;31.53;47.95;99694.97;4972261;28;8848;-59
2023/08/14 11:20:27;;;;;;;;;2.60;2.60;;;;;31.92;47.40;99701.88;4971542;28;8844;-59
2023/08/14 11:22:55;;;;;;;;;4.20;4.20;;;;;32.44;46.63;99695.34;4972883;28;8855;-58
2023/08/14 11:25:24;;;;;;;;;3.20;3.20;;;;;32.43;46.21;99703.88;4975313;28;8836;-59
2023/08/14 11:27:51;;;;;;;;;2.20;2.20;;;;;32.37;47.04;99710.44;4974669;28;8848;-59
2023/08/14 11:30:20;;;;;;;;;3.80;3.80;;;;;32.37;46.97;99705.78;4974424;28;8840;-59
2023/08/14 11:32:53;;;;;;;;;3.40;3.40;;;;;32.03;47.13;99703.63;4972854;28;8841;-59
2023/08/14 11:35:21;;;;;;;;;4.00;4.00;;;;;31.52;48.46;99699.66;4973511;28;8865;-59
2023/08/14 11:37:54;;;;;;;;;5.00;4.40;;;;;31.06;48.98;99696.72;4972354;28;8946;-58
2023/08/14 11:40:22;;;;;;;;;3.00;3.00;;;;;31.27;48.68;99693.09;4973132;28;8993;-59
2023/08/14 11:42:50;;;;;;;;;5.00;5.00;;;;;31.40;48.08;99696.25;4973427;28;8849;-60
2023/08/14 11:45:19;;;;;;;;;2.60;2.40;;;;;31.57;48.28;99693.34;4974265;28;8874;-59